aviador You're here:

KPUW Decoded Metar

PULLMAN/MOSCOW in WA, USA
Report Time2018-05-27 00:53:00
UTC Time2018-05-27 01:12:16
Flight Rules vfr VFR
Wind280° at 08 kt
W.Decomp.*RWY 24: 7.3 kt HW 3.4 kt RCW
W.Rank280° ranks 9
Current wind is above 280° avg. (7.9)
Visibility9999 m
Phenomena:N/A
Clouds:N/A
Expected CloudBase > 4,400 ft AGL from Temp-Dew spread
CeilingNone
Temp18°C (ISA +8)
Dew Point07°C (49% RH)
AAT14.4°C
QNH1017 hPa
Density Alt3,484 ft
Elevation2,536 ft
Report Wrong Elevation
Raw Report
KPUW 270053Z AUTO 28008KT 10SM CLR 18/07 A3003 RMK AO2 SLP163
T01830072=

Extra information for KPUW:More info

Metar Taf Metar & Taf Last 4 Metars F.Rules Stats Wind Profile Meteogram Temp Stats Airport Information Weather charts Add Link Nearby VenuesMetar ALERT Operation Metar Decoded Social comments

AIRNAV info for KPUW